LGL92EL LEBL-ELLX
Flight info
| Callsign | LGL92EL |
|---|---|
| Flight time | N/A |
| Altitude | 38000 |
| Route | DALIN N870 DIBER DCT SECON DCT ODIXU DCT MAXIR DCT LUSOL DCT BODRU DCT OKTET DCT IRMAR DCT KINES DCT VANAS DCT MOBLO DCT UBIMA/N0414F300 DCT GILIR DCT PENDU DCT IXILU/N0409F290 DCT EPL G21 GIVOR |
| Aircraft | B737/M-SDE1GIRWXY/LB1 |
Departure
| Time | 2026-05-01 13:14 |
|---|---|
| Airport | Josep Tarradellas Barcelona-El Prat Airport (LEBL) |
Arrival
| Time | N/A |
|---|---|
| Airport | Luxembourg-Findel International Airport (ELLX) |
| Time | Latitude | Longitude | Altitude | Speed | Heading |
|---|---|---|---|---|---|
| 2026-05-01 12:49 | 41.30281 | 2.08057 | 20 ft | 0 kts | 309° |
| 2026-05-01 12:59 | 41.30264 | 2.08086 | 21 ft | 4 kts | 309° |
| 2026-05-01 13:00 | 41.30233 | 2.08139 | 20 ft | 4 kts | 313° |
| 2026-05-01 13:00 | 41.30214 | 2.08153 | 18 ft | 4 kts | 12° |
| 2026-05-01 13:01 | 41.30184 | 2.08109 | 19 ft | 1 kts | 65° |
| 2026-05-01 13:07 | 41.29048 | 2.06338 | 14 ft | 16 kts | 111° |
| 2026-05-01 13:07 | 41.29010 | 2.06474 | 15 ft | 15 kts | 110° |
| 2026-05-01 13:07 | 41.29026 | 2.06613 | 16 ft | 17 kts | 66° |
| 2026-05-01 13:08 | 41.29078 | 2.06767 | 17 ft | 19 kts | 66° |
| 2026-05-01 13:08 | 41.29130 | 2.06922 | 16 ft | 18 kts | 66° |
| 2026-05-01 13:08 | 41.29182 | 2.07070 | 17 ft | 17 kts | 65° |
| 2026-05-01 13:08 | 41.29232 | 2.07213 | 17 ft | 17 kts | 65° |
| 2026-05-01 13:09 | 41.29283 | 2.07362 | 17 ft | 19 kts | 66° |
| 2026-05-01 13:09 | 41.29337 | 2.07532 | 17 ft | 21 kts | 70° |
| 2026-05-01 13:09 | 41.29397 | 2.07720 | 15 ft | 23 kts | 65° |
| 2026-05-01 13:09 | 41.29465 | 2.07918 | 17 ft | 24 kts | 65° |
| 2026-05-01 13:10 | 41.29531 | 2.08113 | 14 ft | 23 kts | 65° |
| 2026-05-01 13:10 | 41.29543 | 2.08268 | 16 ft | 15 kts | 143° |
| 2026-05-01 13:10 | 41.29445 | 2.08333 | 17 ft | 17 kts | 155° |
| 2026-05-01 13:10 | 41.29336 | 2.08397 | 19 ft | 17 kts | 156° |
| 2026-05-01 13:11 | 41.29229 | 2.08450 | 21 ft | 16 kts | 179° |
| 2026-05-01 13:11 | 41.29119 | 2.08409 | 18 ft | 16 kts | 198° |
| 2026-05-01 13:11 | 41.29013 | 2.08360 | 19 ft | 17 kts | 199° |
| 2026-05-01 13:11 | 41.28873 | 2.08297 | 19 ft | 24 kts | 199° |
| 2026-05-01 13:12 | 41.28720 | 2.08229 | 16 ft | 19 kts | 199° |
| 2026-05-01 13:12 | 41.28654 | 2.08120 | 18 ft | 16 kts | 245° |
| 2026-05-01 13:12 | 41.28604 | 2.07976 | 15 ft | 19 kts | 245° |
| 2026-05-01 13:12 | 41.28542 | 2.07795 | 15 ft | 24 kts | 246° |
| 2026-05-01 13:13 | 41.28471 | 2.07586 | 15 ft | 25 kts | 245° |
| 2026-05-01 13:13 | 41.28406 | 2.07463 | 15 ft | 15 kts | 205° |
| 2026-05-01 13:13 | 41.28300 | 2.07411 | 15 ft | 17 kts | 200° |
| 2026-05-01 13:13 | 41.28244 | 2.07464 | 17 ft | 11 kts | 80° |
| 2026-05-01 13:14 | 41.28312 | 2.07670 | 18 ft | 55 kts | 66° |
| 2026-05-01 13:14 | 41.28576 | 2.08442 | 20 ft | 125 kts | 65° |
| 2026-05-01 13:14 | 41.28985 | 2.09634 | 383 ft | 146 kts | 66° |
| 2026-05-01 13:14 | 41.29291 | 2.10890 | 1240 ft | 144 kts | 87° |
| 2026-05-01 13:15 | 41.29208 | 2.12220 | 2015 ft | 141 kts | 95° |
| 2026-05-01 13:15 | 41.29094 | 2.13531 | 2641 ft | 148 kts | 95° |
| 2026-05-01 13:15 | 41.28975 | 2.14913 | 3243 ft | 152 kts | 96° |
| 2026-05-01 13:15 | 41.28842 | 2.16426 | 3574 ft | 179 kts | 96° |
| 2026-05-01 13:16 | 41.28687 | 2.18200 | 3828 ft | 206 kts | 96° |
| 2026-05-01 13:16 | 41.28509 | 2.20215 | 4044 ft | 233 kts | 96° |
| 2026-05-01 13:16 | 41.28309 | 2.22469 | 4417 ft | 254 kts | 96° |
| 2026-05-01 13:17 | 41.29329 | 2.29313 | 6972 ft | 267 kts | 62° |
| 2026-05-01 13:17 | 41.30268 | 2.31471 | 7833 ft | 272 kts | 61° |
| 2026-05-01 13:18 | 41.32206 | 2.35938 | 9553 ft | 285 kts | 62° |
| 2026-05-01 13:18 | 41.33191 | 2.38238 | 10497 ft | 287 kts | 62° |
| 2026-05-01 13:18 | 41.34202 | 2.40618 | 10968 ft | 309 kts | 61° |
| 2026-05-01 13:18 | 41.35302 | 2.43224 | 11300 ft | 332 kts | 61° |
| 2026-05-01 13:19 | 41.36447 | 2.45945 | 12075 ft | 339 kts | 61° |
| 2026-05-01 13:19 | 41.37601 | 2.48697 | 12978 ft | 342 kts | 61° |
| 2026-05-01 13:19 | 41.39941 | 2.54300 | 14687 ft | 351 kts | 61° |
| 2026-05-01 13:20 | 41.41129 | 2.57151 | 15541 ft | 355 kts | 61° |
| 2026-05-01 13:20 | 41.42331 | 2.60043 | 16399 ft | 359 kts | 61° |
| 2026-05-01 13:20 | 41.43547 | 2.62969 | 17226 ft | 363 kts | 61° |
| 2026-05-01 13:21 | 41.46019 | 2.68932 | 18806 ft | 372 kts | 61° |
| 2026-05-01 13:21 | 41.47275 | 2.71967 | 19570 ft | 376 kts | 61° |
| 2026-05-01 13:21 | 41.48545 | 2.75039 | 20318 ft | 380 kts | 61° |
| 2026-05-01 13:21 | 41.49829 | 2.78147 | 21040 ft | 385 kts | 61° |
| 2026-05-01 13:22 | 41.51126 | 2.81290 | 21748 ft | 389 kts | 62° |
| 2026-05-01 13:22 | 41.52438 | 2.84472 | 22370 ft | 394 kts | 62° |
| 2026-05-01 13:22 | 41.53771 | 2.87708 | 22930 ft | 401 kts | 62° |
| 2026-05-01 13:22 | 41.55122 | 2.90995 | 23517 ft | 406 kts | 61° |
| 2026-05-01 13:23 | 41.56483 | 2.94305 | 24175 ft | 409 kts | 61° |
| 2026-05-01 13:23 | 41.57855 | 2.97650 | 24838 ft | 411 kts | 61° |
| 2026-05-01 13:23 | 41.59228 | 3.00999 | 25471 ft | 413 kts | 61° |
| 2026-05-01 13:23 | 41.60616 | 3.04387 | 26046 ft | 417 kts | 61° |
| 2026-05-01 13:24 | 41.62009 | 3.07793 | 26610 ft | 420 kts | 61° |
| 2026-05-01 13:24 | 41.63414 | 3.11234 | 27135 ft | 423 kts | 61° |
| 2026-05-01 13:24 | 41.64831 | 3.14705 | 27630 ft | 427 kts | 60° |
| 2026-05-01 13:25 | 41.67749 | 3.21867 | 28106 ft | 448 kts | 60° |
| 2026-05-01 13:25 | 41.69238 | 3.25531 | 28649 ft | 448 kts | 60° |
| 2026-05-01 13:25 | 41.70726 | 3.29197 | 29200 ft | 449 kts | 60° |
| 2026-05-01 13:25 | 41.72218 | 3.32876 | 29698 ft | 451 kts | 60° |
| 2026-05-01 13:26 | 41.73699 | 3.36592 | 30115 ft | 454 kts | 62° |
| 2026-05-01 13:26 | 41.75064 | 3.40428 | 30501 ft | 458 kts | 64° |
| 2026-05-01 13:26 | 41.76357 | 3.44337 | 30902 ft | 460 kts | 65° |
| 2026-05-01 13:26 | 41.77629 | 3.48282 | 31282 ft | 462 kts | 65° |
| 2026-05-01 13:27 | 41.78906 | 3.52247 | 31646 ft | 465 kts | 65° |
| 2026-05-01 13:27 | 41.80198 | 3.56225 | 31998 ft | 466 kts | 65° |
| 2026-05-01 13:27 | 41.82819 | 3.64212 | 32537 ft | 474 kts | 65° |
| 2026-05-01 13:28 | 41.85514 | 3.72384 | 33025 ft | 480 kts | 65° |
| 2026-05-01 13:28 | 41.86854 | 3.76460 | 33588 ft | 475 kts | 65° |
| 2026-05-01 13:29 | 41.89505 | 3.84541 | 34414 ft | 473 kts | 65° |
| 2026-05-01 13:29 | 41.92151 | 3.92631 | 35101 ft | 472 kts | 65° |
| 2026-05-01 13:30 | 41.97410 | 4.08752 | 36389 ft | 470 kts | 65° |
| 2026-05-01 13:31 | 42.00018 | 4.16777 | 37271 ft | 459 kts | 65° |
| 2026-05-01 13:31 | 42.03772 | 4.28375 | 38263 ft | 454 kts | 65° |
| 2026-05-01 13:32 | 42.06309 | 4.36184 | 38281 ft | 457 kts | 62° |
| 2026-05-01 13:33 | 42.12426 | 4.45741 | 38280 ft | 450 kts | 32° |
| 2026-05-01 13:33 | 42.17624 | 4.50421 | 38284 ft | 449 kts | 31° |
| 2026-05-01 13:34 | 42.27997 | 4.59701 | 38279 ft | 446 kts | 32° |
| 2026-05-01 13:35 | 42.35682 | 4.66725 | 38285 ft | 443 kts | 32° |
| 2026-05-01 13:36 | 42.43315 | 4.73732 | 38290 ft | 441 kts | 31° |
| 2026-05-01 13:36 | 42.50877 | 4.80692 | 38286 ft | 439 kts | 32° |
| 2026-05-01 13:37 | 42.55107 | 4.84596 | 38278 ft | 438 kts | 31° |
| 2026-05-01 13:37 | 42.60958 | 4.90004 | 38275 ft | 438 kts | 32° |
| 2026-05-01 13:38 | 42.68491 | 4.96984 | 38273 ft | 436 kts | 31° |
| 2026-05-01 13:39 | 42.73506 | 5.01645 | 38282 ft | 437 kts | 31° |
| 2026-05-01 13:39 | 42.78519 | 5.06310 | 38278 ft | 437 kts | 31° |
| 2026-05-01 13:40 | 42.83370 | 5.11311 | 38268 ft | 441 kts | 42° |
| 2026-05-01 13:40 | 42.87265 | 5.17798 | 38279 ft | 443 kts | 50° |
| 2026-05-01 13:41 | 42.90975 | 5.24522 | 38276 ft | 444 kts | 50° |
| 2026-05-01 13:41 | 42.94719 | 5.31225 | 38276 ft | 444 kts | 50° |
| 2026-05-01 13:42 | 42.98482 | 5.37896 | 38278 ft | 444 kts | 50° |
| 2026-05-01 13:42 | 43.02251 | 5.44578 | 38278 ft | 444 kts | 50° |
| 2026-05-01 13:43 | 43.06016 | 5.51272 | 38275 ft | 444 kts | 50° |
| 2026-05-01 13:43 | 43.09778 | 5.57970 | 38274 ft | 444 kts | 49° |
| 2026-05-01 13:44 | 43.13116 | 5.63346 | 38282 ft | 442 kts | 45° |
| 2026-05-01 13:44 | 43.17215 | 5.69528 | 38284 ft | 441 kts | 45° |
| 2026-05-01 13:45 | 43.21325 | 5.75772 | 38287 ft | 441 kts | 45° |
| 2026-05-01 13:45 | 43.25403 | 5.82056 | 38284 ft | 441 kts | 45° |
| 2026-05-01 13:46 | 43.29466 | 5.88349 | 38293 ft | 440 kts | 45° |
| 2026-05-01 13:46 | 43.33522 | 5.94643 | 38283 ft | 440 kts | 45° |
| 2026-05-01 13:47 | 43.37630 | 6.00848 | 38277 ft | 436 kts | 37° |
| 2026-05-01 13:47 | 43.40127 | 6.03110 | 38314 ft | 427 kts | 21° |
| 2026-05-01 13:47 | 43.42902 | 6.04449 | 38284 ft | 420 kts | 8° |
| 2026-05-01 13:48 | 43.48668 | 6.05111 | 38296 ft | 415 kts | 0° |
| 2026-05-01 13:48 | 43.54433 | 6.05585 | 38287 ft | 415 kts | 1° |
| 2026-05-01 13:49 | 43.60203 | 6.06126 | 38285 ft | 416 kts | 1° |
| 2026-05-01 13:49 | 43.65970 | 6.06697 | 38285 ft | 415 kts | 1° |
| 2026-05-01 13:50 | 43.71737 | 6.07268 | 38283 ft | 416 kts | 1° |
| 2026-05-01 13:50 | 43.77475 | 6.08370 | 38285 ft | 420 kts | 13° |
| 2026-05-01 13:51 | 43.82885 | 6.11557 | 38303 ft | 425 kts | 23° |
| 2026-05-01 13:51 | 43.88174 | 6.15259 | 38298 ft | 426 kts | 23° |
| 2026-05-01 13:52 | 43.93481 | 6.18947 | 38298 ft | 427 kts | 23° |
| 2026-05-01 13:52 | 43.98805 | 6.22605 | 38310 ft | 427 kts | 22° |
| 2026-05-01 13:53 | 44.04144 | 6.26262 | 38300 ft | 428 kts | 22° |
| 2026-05-01 13:53 | 44.12157 | 6.31768 | 38306 ft | 428 kts | 23° |
| 2026-05-01 13:54 | 44.17484 | 6.35440 | 38309 ft | 427 kts | 23° |
| 2026-05-01 13:54 | 44.22806 | 6.39115 | 38312 ft | 427 kts | 23° |
| 2026-05-01 13:55 | 44.28113 | 6.42795 | 38325 ft | 425 kts | 23° |
| 2026-05-01 13:55 | 44.33412 | 6.46476 | 38331 ft | 425 kts | 23° |
| 2026-05-01 13:56 | 44.38676 | 6.50139 | 38335 ft | 426 kts | 23° |
| 2026-05-01 13:56 | 44.43978 | 6.53837 | 38325 ft | 426 kts | 23° |
| 2026-05-01 13:57 | 44.49307 | 6.57561 | 38341 ft | 425 kts | 23° |
| 2026-05-01 13:57 | 44.54607 | 6.61247 | 38335 ft | 425 kts | 23° |
| 2026-05-01 13:58 | 44.59871 | 6.64909 | 38354 ft | 425 kts | 23° |
| 2026-05-01 13:58 | 44.64301 | 6.67999 | 38363 ft | 425 kts | 23° |